createdAt,value
2022-10-01T00:03:48.026Z,100.00
2022-10-01T00:08:51.357Z,100.00
2022-10-01T00:13:54.432Z,100.00
2022-10-01T00:19:00.426Z,100.00
2022-10-01T00:24:05.392Z,100.00
2022-10-01T00:29:15.777Z,100.00
2022-10-01T00:34:18.525Z,100.00
2022-10-01T00:39:21.880Z,100.00
2022-10-01T00:44:29.625Z,100.00
2022-10-01T00:49:35.429Z,100.00
2022-10-01T00:54:44.378Z,100.00
2022-10-01T00:59:48.201Z,100.00
2022-10-01T01:04:50.912Z,100.00
2022-10-01T01:09:54.627Z,100.00
2022-10-01T01:15:07.696Z,100.00
2022-10-01T01:20:13.127Z,100.00
2022-10-01T01:25:19.512Z,100.00
2022-10-01T01:30:22.523Z,100.00
2022-10-01T01:35:38.985Z,100.00
2022-10-01T01:40:45.064Z,100.00
2022-10-01T01:45:51.570Z,100.00
2022-10-01T01:51:04.529Z,100.00
2022-10-01T01:56:08.047Z,100.00
2022-10-01T02:01:34.886Z,100.00
2022-10-01T02:07:09.480Z,100.00
2022-10-01T02:12:18.171Z,100.00
2022-10-01T02:17:33.558Z,100.00
2022-10-01T02:22:48.063Z,100.00
2022-10-01T02:28:02.274Z,100.00
2022-10-01T02:33:09.800Z,100.00
2022-10-01T02:38:16.702Z,100.00
2022-10-01T02:43:25.238Z,100.00
2022-10-01T02:48:29.022Z,100.00
2022-10-01T02:53:37.253Z,100.00
2022-10-01T02:58:41.381Z,100.00
2022-10-01T03:03:44.183Z,100.00
2022-10-01T03:08:46.896Z,100.00
2022-10-01T03:13:50.002Z,100.00
2022-10-01T03:18:53.350Z,100.00
2022-10-01T03:23:56.101Z,100.00
2022-10-01T03:28:58.855Z,100.00
2022-10-01T03:34:01.705Z,100.00
2022-10-01T03:39:04.710Z,100.00
2022-10-01T03:44:07.439Z,100.00
2022-10-01T03:49:10.731Z,100.00
2022-10-01T03:54:13.320Z,100.00
2022-10-01T03:59:16.221Z,100.00
2022-10-01T04:04:19.049Z,100.00
2022-10-01T04:09:21.930Z,100.00
2022-10-01T04:14:24.648Z,100.00
2022-10-01T04:19:27.353Z,100.00
2022-10-01T04:24:30.063Z,100.00
2022-10-01T04:29:34.755Z,100.00
2022-10-01T04:34:52.947Z,100.00
2022-10-01T04:39:55.656Z,100.00
2022-10-01T04:44:58.439Z,100.00
2022-10-01T04:50:01.159Z,100.00
2022-10-01T04:55:04.691Z,100.00
2022-10-01T05:00:10.228Z,100.00
2022-10-01T05:05:13.666Z,100.00
2022-10-01T05:10:21.310Z,100.00
2022-10-01T05:15:24.003Z,100.00
2022-10-01T05:20:27.830Z,100.00
2022-10-01T05:25:30.541Z,100.00
2022-10-01T05:30:34.357Z,100.00
2022-10-01T05:35:37.094Z,100.00
2022-10-01T05:40:39.891Z,100.00
2022-10-01T05:45:43.181Z,100.00
2022-10-01T05:50:46.826Z,100.00
2022-10-01T05:55:49.498Z,100.00
2022-10-01T06:00:52.168Z,100.00
2022-10-01T06:05:55.713Z,100.00
2022-10-01T06:11:02.707Z,100.00
2022-10-01T06:16:05.573Z,100.00
2022-10-01T06:21:10.203Z,100.00
2022-10-01T06:26:12.886Z,100.00
2022-10-01T06:31:16.556Z,100.00
2022-10-01T06:36:19.328Z,100.00
2022-10-01T06:41:21.975Z,100.00
2022-10-01T06:46:24.703Z,100.00
2022-10-01T06:51:46.109Z,100.00
2022-10-01T06:56:48.837Z,100.00
2022-10-01T07:01:56.333Z,100.00
2022-10-01T07:06:59.356Z,100.00
2022-10-01T07:12:02.055Z,100.00
2022-10-01T07:17:04.754Z,100.00
2022-10-01T07:22:07.555Z,100.00
2022-10-01T07:27:10.175Z,100.00
2022-10-01T07:32:12.950Z,100.00
2022-10-01T07:37:15.771Z,100.00
2022-10-01T07:42:18.553Z,100.00
2022-10-01T07:47:22.777Z,100.00
2022-10-01T07:52:25.718Z,100.00
2022-10-01T07:57:28.801Z,100.00
2022-10-01T08:02:31.700Z,100.00
2022-10-01T08:07:35.939Z,100.00
2022-10-01T08:12:38.944Z,100.00
2022-10-01T08:17:42.603Z,100.00
2022-10-01T08:22:45.468Z,100.00
2022-10-01T08:27:48.594Z,100.00
2022-10-01T08:32:57.524Z,100.00
2022-10-01T08:38:06.897Z,100.00
2022-10-01T08:43:38.555Z,99.48
2022-10-01T08:49:08.899Z,98.19
2022-10-01T08:54:23.992Z,96.99
2022-10-01T08:59:39.614Z,98.24
2022-10-01T09:04:42.354Z,98.66
2022-10-01T09:09:56.237Z,98.06
2022-10-01T09:15:23.310Z,97.47
2022-10-01T09:20:36.584Z,96.27
2022-10-01T09:25:40.412Z,95.15
2022-10-01T09:30:50.158Z,93.72
2022-10-01T09:36:00.332Z,90.61
2022-10-01T09:41:05.584Z,90.16
2022-10-01T09:46:17.276Z,89.57
2022-10-01T09:51:25.384Z,88.98
2022-10-01T09:56:39.123Z,88.27
2022-10-01T10:01:53.492Z,85.79
2022-10-01T10:07:05.218Z,84.20
2022-10-01T10:12:25.320Z,84.09
2022-10-01T10:17:28.053Z,83.66
2022-10-01T10:22:30.732Z,81.79
2022-10-01T10:27:33.590Z,81.99
2022-10-01T10:32:36.579Z,80.79
2022-10-01T10:37:46.962Z,78.78
2022-10-01T10:42:55.304Z,77.32
2022-10-01T10:47:58.498Z,76.11
2022-10-01T10:53:19.122Z,75.50
2022-10-01T10:58:26.492Z,74.49
2022-10-01T11:03:32.503Z,74.78
2022-10-01T11:08:35.935Z,75.41
2022-10-01T11:13:50.702Z,73.33
2022-10-01T11:19:20.230Z,72.41
2022-10-01T11:24:46.273Z,72.61
2022-10-01T11:30:01.669Z,71.94
2022-10-01T11:35:19.539Z,70.65
2022-10-01T11:40:33.936Z,70.71
2022-10-01T11:45:43.560Z,70.19
2022-10-01T11:50:52.220Z,70.21
2022-10-01T11:56:20.948Z,69.05
2022-10-01T12:02:15.434Z,69.69
2022-10-01T12:07:36.262Z,68.45
2022-10-01T12:12:47.479Z,67.37
2022-10-01T12:17:55.596Z,67.25
2022-10-01T12:23:02.592Z,67.17
2022-10-01T12:28:13.042Z,66.27
2022-10-01T12:33:31.345Z,66.32
2022-10-01T12:38:58.029Z,67.34
2022-10-01T12:44:15.332Z,67.40
2022-10-01T12:49:32.916Z,65.84
2022-10-01T12:54:50.499Z,65.52
2022-10-01T13:00:05.271Z,66.27
2022-10-01T13:05:20.095Z,66.54
2022-10-01T13:10:38.651Z,66.61
2022-10-01T13:15:47.745Z,65.75
2022-10-01T13:20:54.247Z,65.72
2022-10-01T13:26:06.206Z,66.29
2022-10-01T13:31:15.010Z,66.30
2022-10-01T13:36:29.442Z,65.54
2022-10-01T13:41:34.827Z,65.11
2022-10-01T13:46:56.637Z,65.38
2022-10-01T13:51:59.680Z,65.12
2022-10-01T13:57:36.273Z,64.66
2022-10-01T14:02:43.359Z,64.47
2022-10-01T14:07:50.289Z,64.17
2022-10-01T14:13:15.636Z,63.67
2022-10-01T14:18:23.579Z,65.03
2022-10-01T14:23:39.431Z,65.38
2022-10-01T14:29:00.300Z,65.97
2022-10-01T14:34:54.144Z,66.78
2022-10-01T14:40:23.964Z,67.96
2022-10-01T14:45:27.683Z,68.80
2022-10-01T14:50:34.256Z,70.06
2022-10-01T14:55:37.133Z,71.16
2022-10-01T15:00:48.086Z,72.15
2022-10-01T15:05:51.723Z,73.36
2022-10-01T15:11:01.074Z,74.40
2022-10-01T15:16:04.784Z,75.53
2022-10-01T15:21:07.727Z,76.84
2022-10-01T15:26:14.052Z,77.79
2022-10-01T15:31:17.360Z,78.94
2022-10-01T15:36:20.351Z,80.09
2022-10-01T15:41:33.325Z,81.19
2022-10-01T15:46:37.979Z,81.86
2022-10-01T15:52:28.617Z,82.85
2022-10-01T15:57:33.637Z,83.59
2022-10-01T16:02:36.476Z,84.39
2022-10-01T16:07:40.657Z,85.27
2022-10-01T16:12:44.303Z,86.28
2022-10-01T16:18:21.370Z,87.30
2022-10-01T16:23:44.887Z,88.20
2022-10-01T16:28:47.720Z,88.70
2022-10-01T16:33:50.458Z,89.37
2022-10-01T16:38:53.776Z,89.92
2022-10-01T16:43:57.418Z,90.64
2022-10-01T16:49:00.188Z,91.54
2022-10-01T16:54:03.835Z,92.17
2022-10-01T16:59:06.550Z,92.73
2022-10-01T17:04:15.801Z,93.08
2022-10-01T17:09:18.667Z,93.53
2022-10-01T17:14:21.685Z,93.96
2022-10-01T17:19:25.013Z,94.58
2022-10-01T17:24:27.755Z,95.04
2022-10-01T17:29:32.332Z,95.21
2022-10-01T17:34:35.775Z,95.38
2022-10-01T17:39:39.510Z,95.72
2022-10-01T17:44:42.412Z,96.13
2022-10-01T17:49:45.045Z,96.67
2022-10-01T17:54:47.727Z,97.14
2022-10-01T17:59:51.902Z,97.53
2022-10-01T18:04:54.702Z,97.73
2022-10-01T18:09:57.484Z,97.98
2022-10-01T18:15:01.095Z,98.50
2022-10-01T18:20:06.517Z,98.91
2022-10-01T18:25:09.391Z,99.09
2022-10-01T18:30:12.864Z,99.31
2022-10-01T18:35:21.298Z,99.79
2022-10-01T18:40:30.749Z,100.00
2022-10-01T18:45:34.274Z,100.00
2022-10-01T18:50:52.682Z,100.00
2022-10-01T18:56:01.221Z,100.00
2022-10-01T19:01:27.554Z,100.00
2022-10-01T19:06:37.821Z,100.00
2022-10-01T19:12:27.075Z,100.00
2022-10-01T19:17:51.255Z,100.00
2022-10-01T19:23:35.715Z,100.00
2022-10-01T19:28:42.717Z,100.00
2022-10-01T19:33:56.887Z,100.00
2022-10-01T19:39:04.448Z,100.00
2022-10-01T19:44:15.437Z,100.00
2022-10-01T19:49:30.771Z,100.00
2022-10-01T19:54:37.520Z,100.00
2022-10-01T19:59:40.997Z,100.00
2022-10-01T20:04:55.468Z,100.00
2022-10-01T20:10:48.347Z,100.00
2022-10-01T20:16:19.235Z,100.00
2022-10-01T20:21:39.878Z,100.00
2022-10-01T20:26:48.431Z,100.00
2022-10-01T20:32:13.392Z,100.00
2022-10-01T20:37:18.999Z,100.00
2022-10-01T20:42:31.065Z,100.00
2022-10-01T20:47:47.791Z,100.00
2022-10-01T20:53:11.590Z,100.00
2022-10-01T20:58:23.807Z,100.00
2022-10-01T21:03:34.884Z,100.00
2022-10-01T21:08:50.710Z,100.00
2022-10-01T21:14:03.485Z,100.00
2022-10-01T21:19:25.718Z,100.00
2022-10-01T21:25:12.850Z,100.00
2022-10-01T21:30:16.786Z,100.00
2022-10-01T21:35:33.292Z,100.00
2022-10-01T21:40:54.139Z,100.00
2022-10-01T21:46:07.706Z,100.00
2022-10-01T21:51:17.644Z,100.00
2022-10-01T21:56:32.611Z,100.00
2022-10-01T22:02:03.390Z,100.00
2022-10-01T22:07:13.505Z,100.00
2022-10-01T22:12:16.791Z,100.00
2022-10-01T22:17:26.122Z,100.00
2022-10-01T22:22:34.089Z,100.00
2022-10-01T22:27:44.319Z,100.00
2022-10-01T22:32:55.928Z,100.00
2022-10-01T22:38:07.330Z,100.00
2022-10-01T22:43:12.187Z,100.00
2022-10-01T22:48:28.732Z,100.00
2022-10-01T22:54:00.331Z,100.00
2022-10-01T22:59:36.721Z,100.00
2022-10-01T23:04:39.349Z,100.00
2022-10-01T23:09:47.289Z,100.00
2022-10-01T23:15:04.429Z,100.00
2022-10-01T23:20:10.768Z,100.00
2022-10-01T23:25:19.239Z,100.00
2022-10-01T23:30:22.283Z,100.00
2022-10-01T23:35:27.995Z,100.00
2022-10-01T23:40:40.956Z,100.00
2022-10-01T23:45:48.057Z,100.00
2022-10-01T23:51:09.848Z,100.00
2022-10-01T23:56:38.752Z,100.00
